sensor_id;sensor_type;location;lat;lon;timestamp;pressure;altitude;pressure_sealevel;temperature;humidity
22653;BME280;11493;43.344;26.226;2024-03-25T00:01:41;97931.25;;;10.16;100.00
22653;BME280;11493;43.344;26.226;2024-03-25T00:04:07;97923.94;;;10.08;99.88
22653;BME280;11493;43.344;26.226;2024-03-25T00:06:34;97908.38;;;10.00;100.00
22653;BME280;11493;43.344;26.226;2024-03-25T00:09:01;97903.13;;;9.95;100.00
22653;BME280;11493;43.344;26.226;2024-03-25T00:11:27;97911.69;;;10.05;100.00
22653;BME280;11493;43.344;26.226;2024-03-25T00:13:53;97923.47;;;10.18;100.00
22653;BME280;11493;43.344;26.226;2024-03-25T00:16:20;97918.44;;;10.08;100.00
22653;BME280;11493;43.344;26.226;2024-03-25T00:18:46;97926.69;;;10.08;100.00
22653;BME280;11493;43.344;26.226;2024-03-25T00:21:14;97915.25;;;10.06;100.00
22653;BME280;11493;43.344;26.226;2024-03-25T00:23:40;97904.72;;;9.96;100.00
22653;BME280;11493;43.344;26.226;2024-03-25T00:26:06;97890.63;;;9.97;100.00
22653;BME280;11493;43.344;26.226;2024-03-25T00:28:33;97892.34;;;10.02;100.00
22653;BME280;11493;43.344;26.226;2024-03-25T00:30:59;97884.56;;;10.04;100.00
22653;BME280;11493;43.344;26.226;2024-03-25T00:33:25;97872.66;;;10.00;100.00
22653;BME280;11493;43.344;26.226;2024-03-25T00:35:52;97869.09;;;9.99;100.00
22653;BME280;11493;43.344;26.226;2024-03-25T00:38:19;97861.56;;;9.96;100.00
22653;BME280;11493;43.344;26.226;2024-03-25T00:40:45;97861.31;;;10.01;100.00
22653;BME280;11493;43.344;26.226;2024-03-25T00:43:11;97861.56;;;9.96;100.00
22653;BME280;11493;43.344;26.226;2024-03-25T00:45:38;97868.31;;;9.86;100.00
22653;BME280;11493;43.344;26.226;2024-03-25T00:48:04;97853.56;;;9.79;100.00
22653;BME280;11493;43.344;26.226;2024-03-25T00:50:30;97868.56;;;9.81;100.00
22653;BME280;11493;43.344;26.226;2024-03-25T00:52:57;97863.75;;;9.78;100.00
22653;BME280;11493;43.344;26.226;2024-03-25T00:55:23;97862.50;;;9.76;100.00
22653;BME280;11493;43.344;26.226;2024-03-25T00:57:49;97854.59;;;9.74;100.00
22653;BME280;11493;43.344;26.226;2024-03-25T01:00:15;97855.63;;;9.82;100.00
22653;BME280;11493;43.344;26.226;2024-03-25T01:02:42;97837.22;;;9.70;100.00
22653;BME280;11493;43.344;26.226;2024-03-25T01:05:08;97845.56;;;9.74;100.00
22653;BME280;11493;43.344;26.226;2024-03-25T01:07:35;97854.50;;;9.71;100.00
22653;BME280;11493;43.344;26.226;2024-03-25T01:10:01;97859.97;;;9.71;100.00
22653;BME280;11493;43.344;26.226;2024-03-25T01:12:28;97839.50;;;9.68;100.00
22653;BME280;11493;43.344;26.226;2024-03-25T01:14:54;97841.00;;;9.66;100.00
22653;BME280;11493;43.344;26.226;2024-03-25T01:17:20;97845.25;;;9.63;100.00
22653;BME280;11493;43.344;26.226;2024-03-25T01:19:46;97848.47;;;9.65;100.00
22653;BME280;11493;43.344;26.226;2024-03-25T01:22:13;97839.53;;;9.56;100.00
22653;BME280;11493;43.344;26.226;2024-03-25T01:24:39;97851.28;;;9.69;100.00
22653;BME280;11493;43.344;26.226;2024-03-25T01:27:06;97863.19;;;9.73;100.00
22653;BME280;11493;43.344;26.226;2024-03-25T01:29:32;97854.59;;;9.74;100.00
22653;BME280;11493;43.344;26.226;2024-03-25T01:31:58;97852.53;;;9.71;100.00
22653;BME280;11493;43.344;26.226;2024-03-25T01:34:31;97837.91;;;9.67;100.00
22653;BME280;11493;43.344;26.226;2024-03-25T01:36:57;97848.75;;;9.76;100.00
22653;BME280;11493;43.344;26.226;2024-03-25T01:39:24;97847.28;;;9.78;100.00
22653;BME280;11493;43.344;26.226;2024-03-25T01:41:50;97819.75;;;9.63;100.00
22653;BME280;11493;43.344;26.226;2024-03-25T01:44:16;97854.84;;;9.69;100.00
22653;BME280;11493;43.344;26.226;2024-03-25T01:46:43;97859.63;;;9.72;100.00
22653;BME280;11493;43.344;26.226;2024-03-25T01:49:10;97862.38;;;9.72;100.00
22653;BME280;11493;43.344;26.226;2024-03-25T01:51:40;97866.09;;;9.64;100.00
22653;BME280;11493;43.344;26.226;2024-03-25T01:54:08;97872.16;;;9.58;100.00
22653;BME280;11493;43.344;26.226;2024-03-25T01:56:35;97877.53;;;9.54;100.00
22653;BME280;11493;43.344;26.226;2024-03-25T01:59:03;97860.00;;;9.34;100.00
22653;BME280;11493;43.344;26.226;2024-03-25T02:01:29;97886.56;;;9.42;100.00
22653;BME280;11493;43.344;26.226;2024-03-25T02:03:56;97875.22;;;9.44;100.00
22653;BME280;11493;43.344;26.226;2024-03-25T02:06:24;97880.81;;;9.35;100.00
22653;BME280;11493;43.344;26.226;2024-03-25T02:08:55;97878.63;;;9.16;100.00
22653;BME280;11493;43.344;26.226;2024-03-25T02:11:23;97881.59;;;9.11;100.00
22653;BME280;11493;43.344;26.226;2024-03-25T02:13:50;97870.81;;;8.94;100.00
22653;BME280;11493;43.344;26.226;2024-03-25T02:16:17;97858.66;;;8.71;100.00
22653;BME280;11493;43.344;26.226;2024-03-25T02:18:43;97878.53;;;8.68;100.00
22653;BME280;11493;43.344;26.226;2024-03-25T02:21:10;97877.22;;;8.53;100.00
22653;BME280;11493;43.344;26.226;2024-03-25T02:23:38;97868.25;;;8.44;100.00
22653;BME280;11493;43.344;26.226;2024-03-25T02:26:05;97882.97;;;8.39;100.00
22653;BME280;11493;43.344;26.226;2024-03-25T02:28:32;97888.81;;;8.29;100.00
22653;BME280;11493;43.344;26.226;2024-03-25T02:30:58;97874.94;;;8.13;100.00
22653;BME280;11493;43.344;26.226;2024-03-25T02:33:24;97868.59;;;8.01;100.00
22653;BME280;11493;43.344;26.226;2024-03-25T02:35:50;97884.63;;;8.11;100.00
22653;BME280;11493;43.344;26.226;2024-03-25T02:38:19;97883.91;;;8.02;100.00
22653;BME280;11493;43.344;26.226;2024-03-25T02:40:46;97895.75;;;7.85;100.00
22653;BME280;11493;43.344;26.226;2024-03-25T02:43:13;97911.09;;;7.77;100.00
22653;BME280;11493;43.344;26.226;2024-03-25T02:45:39;97898.75;;;7.71;100.00
22653;BME280;11493;43.344;26.226;2024-03-25T02:48:05;97896.84;;;7.63;100.00
22653;BME280;11493;43.344;26.226;2024-03-25T02:50:31;97891.28;;;7.51;100.00
22653;BME280;11493;43.344;26.226;2024-03-25T02:53:00;97909.81;;;7.45;100.00
22653;BME280;11493;43.344;26.226;2024-03-25T02:55:26;97921.56;;;7.46;100.00
22653;BME280;11493;43.344;26.226;2024-03-25T02:57:52;97912.44;;;7.42;100.00
22653;BME280;11493;43.344;26.226;2024-03-25T03:00:24;97922.09;;;7.39;100.00
22653;BME280;11493;43.344;26.226;2024-03-25T03:02:54;97916.47;;;7.36;100.00
22653;BME280;11493;43.344;26.226;2024-03-25T03:05:20;97907.94;;;7.37;100.00
22653;BME280;11493;43.344;26.226;2024-03-25T03:07:47;97912.94;;;7.35;100.00
22653;BME280;11493;43.344;26.226;2024-03-25T03:10:17;97917.75;;;7.38;100.00
22653;BME280;11493;43.344;26.226;2024-03-25T03:12:43;97919.22;;;7.36;100.00
22653;BME280;11493;43.344;26.226;2024-03-25T03:15:09;97909.88;;;7.37;100.00
22653;BME280;11493;43.344;26.226;2024-03-25T03:17:37;97921.97;;;7.36;100.00
22653;BME280;11493;43.344;26.226;2024-03-25T03:20:03;97919.69;;;7.38;100.00
22653;BME280;11493;43.344;26.226;2024-03-25T03:22:29;97919.69;;;7.38;100.00
22653;BME280;11493;43.344;26.226;2024-03-25T03:24:56;97928.22;;;7.36;100.00
22653;BME280;11493;43.344;26.226;2024-03-25T03:27:24;97917.94;;;7.33;100.00
22653;BME280;11493;43.344;26.226;2024-03-25T03:29:51;97913.44;;;7.29;100.00
22653;BME280;11493;43.344;26.226;2024-03-25T03:32:16;97906.38;;;7.28;100.00
22653;BME280;11493;43.344;26.226;2024-03-25T03:34:43;97915.53;;;7.32;100.00
22653;BME280;11493;43.344;26.226;2024-03-25T03:37:09;97924.22;;;7.34;100.00
22653;BME280;11493;43.344;26.226;2024-03-25T03:39:35;97910.06;;;7.32;100.00
22653;BME280;11493;43.344;26.226;2024-03-25T03:42:01;97895.28;;;7.24;100.00
22653;BME280;11493;43.344;26.226;2024-03-25T03:44:28;97901.38;;;7.30;100.00
22653;BME280;11493;43.344;26.226;2024-03-25T03:46:54;97912.06;;;7.43;100.00
22653;BME280;11493;43.344;26.226;2024-03-25T03:49:20;97912.75;;;7.40;100.00
22653;BME280;11493;43.344;26.226;2024-03-25T03:51:46;97914.00;;;7.43;100.00
22653;BME280;11493;43.344;26.226;2024-03-25T03:54:12;97917.69;;;7.47;100.00
22653;BME280;11493;43.344;26.226;2024-03-25T03:56:41;97926.19;;;7.54;100.00
22653;BME280;11493;43.344;26.226;2024-03-25T03:59:07;97901.28;;;7.47;100.00
22653;BME280;11493;43.344;26.226;2024-03-25T04:01:33;97925.22;;;7.58;100.00
22653;BME280;11493;43.344;26.226;2024-03-25T04:03:59;97923.75;;;7.61;100.00
22653;BME280;11493;43.344;26.226;2024-03-25T04:06:24;97915.91;;;7.51;100.00
22653;BME280;11493;43.344;26.226;2024-03-25T04:08:50;97938.03;;;7.37;100.00
22653;BME280;11493;43.344;26.226;2024-03-25T04:11:16;97930.53;;;7.17;100.00
22653;BME280;11493;43.344;26.226;2024-03-25T04:13:42;97953.09;;;7.05;100.00
22653;BME280;11493;43.344;26.226;2024-03-25T04:16:09;97948.13;;;6.90;100.00
22653;BME280;11493;43.344;26.226;2024-03-25T04:18:35;97944.91;;;6.88;100.00
22653;BME280;11493;43.344;26.226;2024-03-25T04:21:01;97962.13;;;6.88;100.00
22653;BME280;11493;43.344;26.226;2024-03-25T04:23:27;97958.59;;;6.71;100.00
22653;BME280;11493;43.344;26.226;2024-03-25T04:25:53;97961.03;;;6.64;100.00
22653;BME280;11493;43.344;26.226;2024-03-25T04:28:20;97957.66;;;6.32;100.00
22653;BME280;11493;43.344;26.226;2024-03-25T04:30:52;97964.25;;;6.48;100.00
22653;BME280;11493;43.344;26.226;2024-03-25T04:33:18;97942.06;;;6.24;100.00
22653;BME280;11493;43.344;26.226;2024-03-25T04:35:45;97965.06;;;6.40;100.00
22653;BME280;11493;43.344;26.226;2024-03-25T04:38:11;97962.81;;;6.34;100.00
22653;BME280;11493;43.344;26.226;2024-03-25T04:40:39;97961.19;;;6.33;100.00
22653;BME280;11493;43.344;26.226;2024-03-25T04:43:05;97976.47;;;6.34;100.00
22653;BME280;11493;43.344;26.226;2024-03-25T04:45:31;97965.69;;;6.29;100.00
22653;BME280;11493;43.344;26.226;2024-03-25T04:47:57;97970.34;;;6.28;100.00
22653;BME280;11493;43.344;26.226;2024-03-25T04:50:23;97972.72;;;6.12;100.00
22653;BME280;11493;43.344;26.226;2024-03-25T04:52:53;97969.00;;;6.00;100.00
22653;BME280;11493;43.344;26.226;2024-03-25T04:55:21;97966.75;;;6.02;100.00
22653;BME280;11493;43.344;26.226;2024-03-25T04:57:48;97956.78;;;5.88;100.00
22653;BME280;11493;43.344;26.226;2024-03-25T05:00:14;97951.78;;;5.82;100.00
22653;BME280;11493;43.344;26.226;2024-03-25T05:02:41;97959.38;;;5.93;100.00
22653;BME280;11493;43.344;26.226;2024-03-25T05:05:08;97960.50;;;6.01;100.00
22653;BME280;11493;43.344;26.226;2024-03-25T05:07:35;97971.09;;;6.03;100.00
22653;BME280;11493;43.344;26.226;2024-03-25T05:10:01;97972.41;;;6.14;100.00
22653;BME280;11493;43.344;26.226;2024-03-25T05:12:28;97967.75;;;6.06;100.00
22653;BME280;11493;43.344;26.226;2024-03-25T05:14:56;97967.09;;;6.09;100.00
22653;BME280;11493;43.344;26.226;2024-03-25T05:17:22;97968.72;;;6.10;100.00
22653;BME280;11493;43.344;26.226;2024-03-25T05:19:48;97965.50;;;6.08;100.00
22653;BME280;11493;43.344;26.226;2024-03-25T05:22:14;97964.06;;;6.10;100.00
22653;BME280;11493;43.344;26.226;2024-03-25T05:24:41;97966.59;;;5.98;100.00
22653;BME280;11493;43.344;26.226;2024-03-25T05:27:07;97955.47;;;5.86;100.00
22653;BME280;11493;43.344;26.226;2024-03-25T05:29:33;97965.66;;;6.11;100.00
22653;BME280;11493;43.344;26.226;2024-03-25T05:32:01;97978.66;;;6.06;100.00
22653;BME280;11493;43.344;26.226;2024-03-25T05:34:27;97976.25;;;6.04;100.00
22653;BME280;11493;43.344;26.226;2024-03-25T05:36:54;97974.81;;;6.07;100.00
22653;BME280;11493;43.344;26.226;2024-03-25T05:39:23;97977.53;;;6.07;100.00
22653;BME280;11493;43.344;26.226;2024-03-25T05:41:49;97970.78;;;6.04;100.00
22653;BME280;11493;43.344;26.226;2024-03-25T05:44:16;97977.69;;;6.02;100.00
22653;BME280;11493;43.344;26.226;2024-03-25T05:46:43;97974.81;;;6.07;100.00
22653;BME280;11493;43.344;26.226;2024-03-25T05:49:09;97975.78;;;6.11;100.00
22653;BME280;11493;43.344;26.226;2024-03-25T05:51:35;97954.56;;;6.08;100.00
22653;BME280;11493;43.344;26.226;2024-03-25T05:54:02;97977.75;;;6.36;100.00
22653;BME280;11493;43.344;26.226;2024-03-25T05:56:28;97966.50;;;6.46;100.00
22653;BME280;11493;43.344;26.226;2024-03-25T05:58:57;97944.34;;;6.48;100.00
22653;BME280;11493;43.344;26.226;2024-03-25T06:01:24;97985.00;;;6.67;100.00
22653;BME280;11493;43.344;26.226;2024-03-25T06:03:53;97982.06;;;6.80;100.00
22653;BME280;11493;43.344;26.226;2024-03-25T06:06:19;97971.78;;;6.86;100.00
22653;BME280;11493;43.344;26.226;2024-03-25T06:08:45;97976.13;;;6.87;100.00
22653;BME280;11493;43.344;26.226;2024-03-25T06:11:11;97983.81;;;7.02;100.00
22653;BME280;11493;43.344;26.226;2024-03-25T06:13:38;97973.69;;;7.03;100.00
22653;BME280;11493;43.344;26.226;2024-03-25T06:16:04;97966.47;;;6.98;100.00
22653;BME280;11493;43.344;26.226;2024-03-25T06:18:30;97967.25;;;7.07;100.00
22653;BME280;11493;43.344;26.226;2024-03-25T06:20:55;97958.69;;;7.17;100.00
22653;BME280;11493;43.344;26.226;2024-03-25T06:23:23;97978.16;;;7.24;100.00
22653;BME280;11493;43.344;26.226;2024-03-25T06:25:53;97974.28;;;7.25;100.00
22653;BME280;11493;43.344;26.226;2024-03-25T06:28:20;97976.16;;;7.42;100.00
22653;BME280;11493;43.344;26.226;2024-03-25T06:30:48;97981.97;;;7.41;100.00
22653;BME280;11493;43.344;26.226;2024-03-25T06:33:39;97967.66;;;7.35;100.00
22653;BME280;11493;43.344;26.226;2024-03-25T06:36:26;97983.75;;;7.37;100.00
22653;BME280;11493;43.344;26.226;2024-03-25T06:38:52;97976.53;;;7.23;100.00
22653;BME280;11493;43.344;26.226;2024-03-25T06:41:21;97983.75;;;7.37;100.00
22653;BME280;11493;43.344;26.226;2024-03-25T06:43:48;97994.47;;;7.50;100.00
22653;BME280;11493;43.344;26.226;2024-03-25T06:46:15;97989.84;;;7.42;100.00
22653;BME280;11493;43.344;26.226;2024-03-25T06:48:41;97985.69;;;7.36;100.00
22653;BME280;11493;43.344;26.226;2024-03-25T06:51:07;97988.00;;;7.55;100.00
22653;BME280;11493;43.344;26.226;2024-03-25T06:53:34;97990.63;;;7.43;100.00
22653;BME280;11493;43.344;26.226;2024-03-25T06:56:03;97984.72;;;7.41;100.00
22653;BME280;11493;43.344;26.226;2024-03-25T06:58:29;97991.06;;;7.53;100.00
22653;BME280;11493;43.344;26.226;2024-03-25T07:00:56;97985.28;;;7.55;100.00
22653;BME280;11493;43.344;26.226;2024-03-25T07:03:26;97982.41;;;7.43;100.00
22653;BME280;11493;43.344;26.226;2024-03-25T07:05:52;97964.75;;;7.40;100.00
22653;BME280;11493;43.344;26.226;2024-03-25T07:08:26;97980.94;;;7.54;100.00
22653;BME280;11493;43.344;26.226;2024-03-25T07:10:54;97985.53;;;7.33;100.00
22653;BME280;11493;43.344;26.226;2024-03-25T07:13:20;97989.38;;;7.40;100.00
22653;BME280;11493;43.344;26.226;2024-03-25T07:15:46;97998.13;;;7.63;100.00
22653;BME280;11493;43.344;26.226;2024-03-25T07:18:15;97998.94;;;7.64;100.00
22653;BME280;11493;43.344;26.226;2024-03-25T07:20:43;98011.50;;;7.65;100.00
22653;BME280;11493;43.344;26.226;2024-03-25T07:23:10;98012.63;;;7.64;100.00
22653;BME280;11493;43.344;26.226;2024-03-25T07:25:37;98012.94;;;7.62;100.00
22653;BME280;11493;43.344;26.226;2024-03-25T07:28:03;98011.66;;;7.59;100.00
22653;BME280;11493;43.344;26.226;2024-03-25T07:30:31;98003.44;;;7.59;100.00
22653;BME280;11493;43.344;26.226;2024-03-25T07:32:58;98001.13;;;7.41;100.00
22653;BME280;11493;43.344;26.226;2024-03-25T07:35:25;98011.75;;;7.42;100.00
22653;BME280;11493;43.344;26.226;2024-03-25T07:37:51;98023.81;;;7.41;100.00
22653;BME280;11493;43.344;26.226;2024-03-25T07:40:21;98020.72;;;7.43;100.00
22653;BME280;11493;43.344;26.226;2024-03-25T07:42:48;98029.28;;;7.41;100.00
22653;BME280;11493;43.344;26.226;2024-03-25T07:45:16;98020.59;;;7.39;100.00
22653;BME280;11493;43.344;26.226;2024-03-25T07:47:42;98012.09;;;7.32;100.00
22653;BME280;11493;43.344;26.226;2024-03-25T07:50:08;98021.41;;;7.40;100.00
22653;BME280;11493;43.344;26.226;2024-03-25T07:52:34;98023.28;;;7.48;100.00
22653;BME280;11493;43.344;26.226;2024-03-25T07:55:06;98028.63;;;7.44;100.00
22653;BME280;11493;43.344;26.226;2024-03-25T07:57:32;98023.13;;;7.53;100.00
22653;BME280;11493;43.344;26.226;2024-03-25T07:59:58;98030.50;;;7.61;100.00
22653;BME280;11493;43.344;26.226;2024-03-25T08:02:24;98018.91;;;7.64;100.00
22653;BME280;11493;43.344;26.226;2024-03-25T08:04:51;98033.03;;;7.75;100.00
22653;BME280;11493;43.344;26.226;2024-03-25T08:07:17;98032.06;;;7.79;100.00
22653;BME280;11493;43.344;26.226;2024-03-25T08:09:43;98039.63;;;7.82;100.00
22653;BME280;11493;43.344;26.226;2024-03-25T08:12:10;98024.97;;;7.78;100.00
22653;BME280;11493;43.344;26.226;2024-03-25T08:14:40;98034.31;;;7.77;100.00
22653;BME280;11493;43.344;26.226;2024-03-25T08:17:12;98031.28;;;7.70;100.00
22653;BME280;11493;43.344;26.226;2024-03-25T08:19:37;98051.91;;;7.59;100.00
22653;BME280;11493;43.344;26.226;2024-03-25T08:22:03;98049.25;;;7.42;100.00
22653;BME280;11493;43.344;26.226;2024-03-25T08:24:29;98068.75;;;7.32;100.00
22653;BME280;11493;43.344;26.226;2024-03-25T08:26:56;98068.44;;;7.07;100.00
22653;BME280;11493;43.344;26.226;2024-03-25T08:29:22;98076.63;;;6.81;100.00
22653;BME280;11493;43.344;26.226;2024-03-25T08:31:50;98070.03;;;6.56;100.00
22653;BME280;11493;43.344;26.226;2024-03-25T08:34:16;98068.22;;;6.35;100.00
22653;BME280;11493;43.344;26.226;2024-03-25T08:36:43;98069.81;;;6.36;100.00
22653;BME280;11493;43.344;26.226;2024-03-25T08:39:09;98079.47;;;6.33;100.00
22653;BME280;11493;43.344;26.226;2024-03-25T08:41:38;98076.09;;;6.36;100.00
22653;BME280;11493;43.344;26.226;2024-03-25T08:44:05;98080.31;;;6.59;100.00
22653;BME280;11493;43.344;26.226;2024-03-25T08:46:32;98088.03;;;6.75;100.00
22653;BME280;11493;43.344;26.226;2024-03-25T08:48:59;98076.00;;;6.67;100.00
22653;BME280;11493;43.344;26.226;2024-03-25T08:51:27;98099.31;;;6.82;100.00
22653;BME280;11493;43.344;26.226;2024-03-25T08:53:56;98090.28;;;6.55;100.00
22653;BME280;11493;43.344;26.226;2024-03-25T08:56:22;98106.53;;;6.61;100.00
22653;BME280;11493;43.344;26.226;2024-03-25T08:58:48;98125.00;;;6.55;100.00
22653;BME280;11493;43.344;26.226;2024-03-25T09:01:14;98140.09;;;6.52;100.00
22653;BME280;11493;43.344;26.226;2024-03-25T09:03:42;98143.63;;;6.44;100.00
22653;BME280;11493;43.344;26.226;2024-03-25T09:06:13;98139.13;;;6.48;100.00
22653;BME280;11493;43.344;26.226;2024-03-25T09:08:39;98149.63;;;6.72;100.00
22653;BME280;11493;43.344;26.226;2024-03-25T09:11:29;98155.56;;;6.74;100.00
22653;BME280;11493;43.344;26.226;2024-03-25T09:13:55;98151.88;;;6.79;100.00
22653;BME280;11493;43.344;26.226;2024-03-25T09:16:21;98165.59;;;6.96;100.00
22653;BME280;11493;43.344;26.226;2024-03-25T09:18:47;98166.22;;;6.93;100.00
22653;BME280;11493;43.344;26.226;2024-03-25T09:21:16;98154.19;;;7.03;100.00
22653;BME280;11493;43.344;26.226;2024-03-25T09:23:53;98162.88;;;7.22;100.00
22653;BME280;11493;43.344;26.226;2024-03-25T09:26:24;98177.53;;;7.17;100.00
22653;BME280;11493;43.344;26.226;2024-03-25T09:28:50;98174.97;;;7.30;100.00
22653;BME280;11493;43.344;26.226;2024-03-25T09:31:17;98176.25;;;7.32;100.00
22653;BME280;11493;43.344;26.226;2024-03-25T09:33:44;98174.63;;;7.57;100.00
22653;BME280;11493;43.344;26.226;2024-03-25T09:36:11;98183.34;;;7.33;100.00
22653;BME280;11493;43.344;26.226;2024-03-25T09:38:40;98199.41;;;7.26;100.00
22653;BME280;11493;43.344;26.226;2024-03-25T09:41:08;98198.78;;;7.38;100.00
22653;BME280;11493;43.344;26.226;2024-03-25T09:43:56;98190.72;;;7.33;100.00
22653;BME280;11493;43.344;26.226;2024-03-25T09:46:26;98200.41;;;7.39;100.00
22653;BME280;11493;43.344;26.226;2024-03-25T09:48:53;98200.41;;;7.39;100.00
22653;BME280;11493;43.344;26.226;2024-03-25T09:51:20;98191.69;;;7.54;100.00
22653;BME280;11493;43.344;26.226;2024-03-25T09:53:47;98186.03;;;7.68;100.00
22653;BME280;11493;43.344;26.226;2024-03-25T09:56:14;98188.91;;;7.88;100.00
22653;BME280;11493;43.344;26.226;2024-03-25T09:58:45;98176.19;;;7.93;100.00
22653;BME280;11493;43.344;26.226;2024-03-25T10:01:14;98210.16;;;8.00;100.00
22653;BME280;11493;43.344;26.226;2024-03-25T10:03:41;98206.78;;;7.95;100.00
22653;BME280;11493;43.344;26.226;2024-03-25T10:06:08;98193.06;;;8.12;100.00
22653;BME280;11493;43.344;26.226;2024-03-25T10:08:37;98218.94;;;8.32;100.00
22653;BME280;11493;43.344;26.226;2024-03-25T10:11:04;98224.50;;;8.06;100.00
22653;BME280;11493;43.344;26.226;2024-03-25T10:13:30;98214.69;;;7.79;100.00
22653;BME280;11493;43.344;26.226;2024-03-25T10:15:56;98214.84;;;7.82;100.00
22653;BME280;11493;43.344;26.226;2024-03-25T10:18:25;98228.69;;;7.95;100.00
22653;BME280;11493;43.344;26.226;2024-03-25T10:20:51;98223.25;;;7.77;100.00
22653;BME280;11493;43.344;26.226;2024-03-25T10:23:20;98232.09;;;7.83;100.00
22653;BME280;11493;43.344;26.226;2024-03-25T10:25:48;98230.66;;;7.68;100.00
22653;BME280;11493;43.344;26.226;2024-03-25T10:28:19;98239.19;;;7.84;100.00
22653;BME280;11493;43.344;26.226;2024-03-25T10:30:45;98246.25;;;8.11;100.00
22653;BME280;11493;43.344;26.226;2024-03-25T10:33:12;98234.75;;;8.17;100.00
22653;BME280;11493;43.344;26.226;2024-03-25T10:35:39;98246.88;;;8.16;100.00
22653;BME280;11493;43.344;26.226;2024-03-25T10:38:07;98230.78;;;7.98;100.00
22653;BME280;11493;43.344;26.226;2024-03-25T10:40:38;98234.41;;;8.28;100.00
22653;BME280;11493;43.344;26.226;2024-03-25T10:43:09;98246.94;;;8.54;100.00
22653;BME280;11493;43.344;26.226;2024-03-25T10:45:51;98254.75;;;8.35;100.00
22653;BME280;11493;43.344;26.226;2024-03-25T10:50:50;98260.66;;;8.54;100.00
22653;BME280;11493;43.344;26.226;2024-03-25T10:53:18;98275.69;;;8.40;100.00
22653;BME280;11493;43.344;26.226;2024-03-25T10:55:47;98268.09;;;8.28;100.00
22653;BME280;11493;43.344;26.226;2024-03-25T10:58:15;98273.59;;;8.37;100.00
22653;BME280;11493;43.344;26.226;2024-03-25T11:00:44;98271.16;;;8.52;100.00
22653;BME280;11493;43.344;26.226;2024-03-25T11:03:11;98268.44;;;8.27;100.00
22653;BME280;11493;43.344;26.226;2024-03-25T11:05:42;98264.56;;;8.36;100.00
22653;BME280;11493;43.344;26.226;2024-03-25T11:08:16;98276.16;;;8.24;100.00
22653;BME280;11493;43.344;26.226;2024-03-25T11:10:47;98169.94;;;7.66;100.00
22653;BME280;11493;43.344;26.226;2024-03-25T11:13:16;98263.28;;;8.25;100.00
22653;BME280;11493;43.344;26.226;2024-03-25T11:15:43;98267.63;;;8.26;100.00
22653;BME280;11493;43.344;26.226;2024-03-25T11:18:13;98271.19;;;8.18;100.00
22653;BME280;11493;43.344;26.226;2024-03-25T11:20:40;98276.47;;;8.49;100.00
22653;BME280;11493;43.344;26.226;2024-03-25T11:23:10;98284.41;;;8.88;100.00
22653;BME280;11493;43.344;26.226;2024-03-25T11:25:37;98272.75;;;8.92;100.00
22653;BME280;11493;43.344;26.226;2024-03-25T11:28:03;98272.34;;;9.10;100.00
22653;BME280;11493;43.344;26.226;2024-03-25T11:30:30;98288.34;;;9.08;100.00
22653;BME280;11493;43.344;26.226;2024-03-25T11:32:58;98284.53;;;8.92;100.00
22653;BME280;11493;43.344;26.226;2024-03-25T11:35:24;98280.75;;;9.05;100.00
22653;BME280;11493;43.344;26.226;2024-03-25T11:37:50;98292.59;;;9.27;100.00
22653;BME280;11493;43.344;26.226;2024-03-25T11:40:18;98281.59;;;9.35;100.00
22653;BME280;11493;43.344;26.226;2024-03-25T11:42:46;98290.38;;;9.20;100.00
22653;BME280;11493;43.344;26.226;2024-03-25T11:45:16;98292.22;;;9.37;100.00
22653;BME280;11493;43.344;26.226;2024-03-25T11:47:43;98283.38;;;9.61;100.00
22653;BME280;11493;43.344;26.226;2024-03-25T11:50:15;98290.91;;;9.84;100.00
22653;BME280;11493;43.344;26.226;2024-03-25T11:52:42;98284.84;;;9.58;100.00
22653;BME280;11493;43.344;26.226;2024-03-25T11:55:08;98301.84;;;9.72;100.00
22653;BME280;11493;43.344;26.226;2024-03-25T11:57:36;98295.03;;;9.28;100.00
22653;BME280;11493;43.344;26.226;2024-03-25T12:00:03;98289.94;;;9.09;98.82
22653;BME280;11493;43.344;26.226;2024-03-25T12:02:32;98279.69;;;9.27;100.00
22653;BME280;11493;43.344;26.226;2024-03-25T12:05:01;98282.91;;;9.29;100.00
22653;BME280;11493;43.344;26.226;2024-03-25T12:07:28;98290.63;;;9.36;100.00
22653;BME280;11493;43.344;26.226;2024-03-25T12:09:54;98284.00;;;9.37;100.00
22653;BME280;11493;43.344;26.226;2024-03-25T12:12:38;98287.59;;;9.29;99.28
22653;BME280;11493;43.344;26.226;2024-03-25T12:15:05;98280.97;;;9.30;100.00
22653;BME280;11493;43.344;26.226;2024-03-25T12:17:33;98258.41;;;9.24;100.00
22653;BME280;11493;43.344;26.226;2024-03-25T12:20:02;98277.47;;;9.50;99.92
22653;BME280;11493;43.344;26.226;2024-03-25T12:22:33;98268.66;;;9.36;99.46
22653;BME280;11493;43.344;26.226;2024-03-25T12:25:05;98279.13;;;9.42;100.00
22653;BME280;11493;43.344;26.226;2024-03-25T12:27:32;98275.34;;;9.26;99.93
22653;BME280;11493;43.344;26.226;2024-03-25T12:30:06;98281.81;;;9.51;98.60
22653;BME280;11493;43.344;26.226;2024-03-25T12:32:40;98271.88;;;9.79;98.31
22653;BME280;11493;43.344;26.226;2024-03-25T12:35:11;98274.75;;;10.04;98.52
22653;BME280;11493;43.344;26.226;2024-03-25T12:37:40;98274.22;;;10.10;96.47
22653;BME280;11493;43.344;26.226;2024-03-25T12:40:09;98273.66;;;10.38;97.69
22653;BME280;11493;43.344;26.226;2024-03-25T12:42:35;98261.75;;;10.46;97.19
22653;BME280;11493;43.344;26.226;2024-03-25T12:45:08;98254.56;;;10.53;98.38
22653;BME280;11493;43.344;26.226;2024-03-25T12:47:35;98259.50;;;10.60;97.52
22653;BME280;11493;43.344;26.226;2024-03-25T12:50:01;98259.84;;;10.71;96.31
22653;BME280;11493;43.344;26.226;2024-03-25T12:52:27;98254.28;;;10.34;95.43
22653;BME280;11493;43.344;26.226;2024-03-25T12:54:53;98267.91;;;10.31;93.08